Time;durP1;ratioP1;P1;durP2;ratioP2;P2;SDS_P1;SDS_P2;PMS_P1;PMS_P2;Temp;Humidity;BMP_temperature;BMP_pressure;BME280_temperature;BME280_humidity;BME280_pressure;Samples;Min_cycle;Max_cycle;Signal;HPM_P1;HPM_P2
2021/07/20 00:00:32;;;;;;;8.07;5.18;;;19.60;72.00;;;;;;5029730;28;20107;-65
2021/07/20 00:02:58;;;;;;;6.55;5.38;;;19.60;71.90;;;;;;5024654;28;20041;-64
2021/07/20 00:05:27;;;;;;;12.35;5.65;;;19.60;71.80;;;;;;5032424;28;20053;-64
2021/07/20 00:07:58;;;;;;;9.93;5.75;;;19.60;73.00;;;;;;5025831;28;20037;-64
2021/07/20 00:10:30;;;;;;;6.57;5.03;;;19.60;72.40;;;;;;5015549;28;20040;-64
2021/07/20 00:12:56;;;;;;;8.65;5.10;;;19.50;72.30;;;;;;5027589;28;20041;-64
2021/07/20 00:15:22;;;;;;;6.43;5.43;;;19.50;71.90;;;;;;5025314;28;20351;-64
2021/07/20 00:17:51;;;;;;;6.65;4.90;;;19.50;72.00;;;;;;5032942;28;20029;-64
2021/07/20 00:20:19;;;;;;;5.60;4.80;;;19.50;72.10;;;;;;5051060;28;20036;-64
2021/07/20 00:22:44;;;;;;;6.88;4.90;;;19.40;72.10;;;;;;5024322;28;20120;-64
2021/07/20 00:25:11;;;;;;;7.28;4.85;;;19.40;72.10;;;;;;5025364;28;20503;-64
2021/07/20 00:27:38;;;;;;;6.75;4.85;;;19.40;72.20;;;;;;5018303;28;20036;-64
2021/07/20 00:30:05;;;;;;;6.05;4.82;;;19.40;72.10;;;;;;5032038;28;20133;-64
2021/07/20 00:32:31;;;;;;;8.00;4.78;;;19.30;72.20;;;;;;5027316;28;20499;-64
2021/07/20 00:34:57;;;;;;;6.30;4.80;;;19.30;72.30;;;;;;5029173;28;20055;-64
2021/07/20 00:37:22;;;;;;;7.88;4.70;;;19.30;72.40;;;;;;5026732;28;20026;-64
2021/07/20 00:39:48;;;;;;;5.45;4.78;;;19.20;72.30;;;;;;5031790;28;20060;-64
2021/07/20 00:42:14;;;;;;;7.57;5.15;;;19.20;72.50;;;;;;5030674;28;20090;-64
2021/07/20 00:44:40;;;;;;;5.60;5.05;;;19.10;72.50;;;;;;5028534;28;20036;-64
2021/07/20 00:47:06;;;;;;;9.25;5.30;;;19.10;72.50;;;;;;5028493;28;20033;-64
2021/07/20 00:49:31;;;;;;;8.68;5.25;;;19.10;72.60;;;;;;5031036;28;20045;-64
2021/07/20 00:51:57;;;;;;;5.85;5.25;;;19.00;72.60;;;;;;5038525;28;20039;-64
2021/07/20 00:54:23;;;;;;;7.88;5.30;;;19.00;72.80;;;;;;5036692;28;20042;-65
2021/07/20 00:56:50;;;;;;;6.25;4.70;;;19.00;72.80;;;;;;5035469;28;20033;-64
2021/07/20 00:59:16;;;;;;;5.10;4.55;;;19.00;72.80;;;;;;5031413;28;20030;-64
2021/07/20 01:01:42;;;;;;;6.45;5.15;;;19.00;72.70;;;;;;5028237;28;20041;-65
2021/07/20 01:04:08;;;;;;;8.73;5.20;;;19.00;72.60;;;;;;5032647;28;20041;-65
2021/07/20 01:06:34;;;;;;;6.28;5.20;;;19.00;72.60;;;;;;5036354;28;20063;-64
2021/07/20 01:09:03;;;;;;;4.97;4.47;;;19.00;72.50;;;;;;5032802;28;20087;-64
2021/07/20 01:11:31;;;;;;;9.48;5.55;;;18.90;72.60;;;;;;5032311;28;20136;-64
2021/07/20 01:13:57;;;;;;;8.48;5.35;;;18.90;72.90;;;;;;5032231;28;20051;-64
2021/07/20 01:16:24;;;;;;;7.45;5.28;;;18.80;72.90;;;;;;5030738;28;20033;-65
2021/07/20 01:18:51;;;;;;;7.00;5.50;;;18.70;73.20;;;;;;5034222;28;20034;-64
2021/07/20 01:21:17;;;;;;;9.02;5.20;;;18.70;73.40;;;;;;5031256;28;20037;-64
2021/07/20 01:23:45;;;;;;;6.43;4.95;;;18.60;73.70;;;;;;5033086;28;20061;-64
2021/07/20 01:26:11;;;;;;;6.97;5.40;;;18.60;73.70;;;;;;5036564;28;20037;-64
2021/07/20 01:28:38;;;;;;;8.15;5.40;;;18.50;73.70;;;;;;5033270;28;20439;-64
2021/07/20 01:31:09;;;;;;;7.38;6.05;;;18.60;74.00;;;;;;5034060;28;20079;-66
2021/07/20 01:33:38;;;;;;;8.77;6.55;;;18.50;75.10;;;;;;5032232;28;20048;-64
2021/07/20 01:36:06;;;;;;;8.70;6.70;;;18.50;74.30;;;;;;5034024;28;20045;-64
2021/07/20 01:38:33;;;;;;;9.27;7.05;;;18.40;74.20;;;;;;5033926;28;20068;-64
2021/07/20 01:41:06;;;;;;;11.38;7.05;;;18.40;74.20;;;;;;5032655;28;20072;-64
2021/07/20 01:43:32;;;;;;;10.32;7.78;;;18.40;74.40;;;;;;5034048;28;20103;-64
2021/07/20 01:46:00;;;;;;;10.07;7.38;;;18.40;74.40;;;;;;5028362;28;20036;-64
2021/07/20 01:48:28;;;;;;;10.70;7.85;;;18.30;74.40;;;;;;5030692;28;20639;-64
2021/07/20 01:50:55;;;;;;;9.02;7.43;;;18.30;74.70;;;;;;5034886;28;20409;-64
2021/07/20 01:53:22;;;;;;;10.93;7.65;;;18.20;74.90;;;;;;5031971;28;20567;-64
2021/07/20 01:55:49;;;;;;;11.52;7.60;;;18.20;74.80;;;;;;5030555;28;20033;-64
2021/07/20 01:58:15;;;;;;;8.77;7.28;;;18.20;75.10;;;;;;5028215;28;20473;-64
2021/07/20 02:00:42;;;;;;;10.48;7.43;;;18.10;75.60;;;;;;5033721;28;20025;-65
2021/07/20 02:03:21;;;;;;;;;;;;;;;;;;;;;
2021/07/20 02:08:30;;;;;;;9.68;7.30;;;18.10;75.30;;;;;;5033578;28;20066;-65
2021/07/20 02:11:10;;;;;;;8.57;7.30;;;18.00;74.90;;;;;;5030384;28;20045;-64
2021/07/20 02:13:42;;;;;;;9.60;7.35;;;18.00;75.40;;;;;;5036967;28;20025;-64
2021/07/20 02:16:11;;;;;;;8.63;7.28;;;18.00;75.20;;;;;;5033143;28;20068;-65
2021/07/20 02:18:38;;;;;;;8.57;6.82;;;18.00;75.10;;;;;;5031537;28;20409;-64
2021/07/20 02:21:06;;;;;;;13.35;8.05;;;18.00;75.10;;;;;;5032040;28;20444;-64
2021/07/20 02:23:33;;;;;;;11.20;7.38;;;18.00;75.10;;;;;;5031686;28;20114;-64
2021/07/20 02:26:00;;;;;;;10.88;7.95;;;18.00;75.10;;;;;;5030384;28;20025;-64
2021/07/20 02:28:27;;;;;;;10.07;7.43;;;17.90;75.10;;;;;;5031720;28;20064;-64
2021/07/20 02:30:54;;;;;;;11.38;7.70;;;17.90;75.10;;;;;;5033997;28;20048;-64
2021/07/20 02:33:21;;;;;;;10.13;7.97;;;17.90;75.20;;;;;;5030739;28;20068;-64
2021/07/20 02:35:49;;;;;;;12.80;8.55;;;17.90;75.40;;;;;;5030886;28;20686;-64
2021/07/20 02:38:16;;;;;;;11.80;8.85;;;17.80;75.40;;;;;;5031117;28;20132;-64
2021/07/20 02:40:43;;;;;;;14.10;9.05;;;17.80;75.60;;;;;;5032687;28;20433;-64
2021/07/20 02:43:09;;;;;;;12.25;8.50;;;17.80;75.70;;;;;;5030538;28;20091;-64
2021/07/20 02:45:37;;;;;;;13.07;9.07;;;17.80;75.70;;;;;;5032362;28;20458;-64
2021/07/20 02:48:03;;;;;;;11.80;9.20;;;17.70;75.40;;;;;;5032042;28;20040;-64
2021/07/20 02:50:31;;;;;;;13.95;8.77;;;17.70;75.60;;;;;;5023853;28;20033;-64
2021/07/20 02:52:58;;;;;;;11.77;9.05;;;17.70;75.70;;;;;;5030341;28;20041;-64
2021/07/20 02:55:24;;;;;;;11.20;9.02;;;17.70;75.80;;;;;;5029196;28;20505;-64
2021/07/20 02:57:50;;;;;;;12.32;9.25;;;17.70;75.80;;;;;;5030876;28;20044;-64
2021/07/20 03:00:17;;;;;;;13.98;8.70;;;17.60;75.80;;;;;;5031312;28;20063;-64
2021/07/20 03:02:45;;;;;;;11.27;8.15;;;17.60;75.90;;;;;;5027709;28;20056;-64
2021/07/20 03:05:13;;;;;;;12.45;9.20;;;17.60;76.00;;;;;;5026820;28;20743;-64
2021/07/20 03:07:42;;;;;;;11.43;8.48;;;17.50;76.00;;;;;;5033625;28;20500;-64
2021/07/20 03:10:09;;;;;;;10.65;8.30;;;17.50;75.80;;;;;;5030857;28;20146;-64
2021/07/20 03:12:37;;;;;;;13.38;8.25;;;17.50;75.90;;;;;;5030785;28;20058;-64
2021/07/20 03:15:04;;;;;;;12.13;8.13;;;17.50;75.80;;;;;;5032220;28;20044;-64
2021/07/20 03:17:31;;;;;;;9.30;7.15;;;17.50;75.70;;;;;;5028934;28;20124;-64
2021/07/20 03:19:58;;;;;;;11.55;7.75;;;17.50;76.00;;;;;;5026448;28;20034;-64
2021/07/20 03:22:28;;;;;;;10.15;7.60;;;17.40;75.70;;;;;;5029045;28;20041;-65
2021/07/20 03:24:56;;;;;;;13.10;7.75;;;17.40;75.80;;;;;;5029801;28;20033;-64
2021/07/20 03:27:22;;;;;;;13.50;8.10;;;17.40;75.70;;;;;;5031149;28;20025;-64
2021/07/20 03:29:50;;;;;;;12.57;7.93;;;17.40;75.50;;;;;;5031242;28;20048;-64
2021/07/20 03:32:17;;;;;;;10.85;7.85;;;17.40;75.60;;;;;;5027389;28;20033;-64
2021/07/20 03:34:45;;;;;;;10.63;7.97;;;17.30;75.60;;;;;;5026492;28;20132;-64
2021/07/20 03:37:11;;;;;;;10.45;7.55;;;17.30;75.70;;;;;;5024270;28;20037;-64
2021/07/20 03:39:39;;;;;;;12.65;8.65;;;17.30;75.60;;;;;;5025879;28;20536;-63
2021/07/20 03:42:07;;;;;;;11.13;7.93;;;17.30;75.80;;;;;;5029796;28;20072;-64
2021/07/20 03:44:33;;;;;;;10.20;8.15;;;17.20;75.80;;;;;;5028088;28;20030;-64
2021/07/20 03:46:58;;;;;;;11.30;8.48;;;17.10;75.80;;;;;;5027418;28;20710;-64
2021/07/20 03:49:27;;;;;;;10.82;8.32;;;17.10;75.90;;;;;;5030473;28;20034;-64
2021/07/20 03:51:55;;;;;;;12.77;8.70;;;17.00;76.00;;;;;;5027542;28;20059;-64
2021/07/20 03:54:22;;;;;;;11.52;8.70;;;17.00;76.10;;;;;;5030287;28;20087;-64
2021/07/20 03:56:50;;;;;;;12.70;8.25;;;17.00;76.30;;;;;;5026789;28;20036;-64
2021/07/20 03:59:16;;;;;;;11.65;8.05;;;16.90;76.50;;;;;;5030549;28;20029;-64
2021/07/20 04:01:45;;;;;;;12.65;8.90;;;16.90;77.50;;;;;;5027532;28;20378;-64
2021/07/20 04:04:15;;;;;;;13.85;9.48;;;16.90;76.80;;;;;;5027243;28;20094;-64
2021/07/20 04:06:43;;;;;;;11.93;8.68;;;16.90;76.80;;;;;;5021712;28;20080;-64
2021/07/20 04:09:11;;;;;;;12.90;9.02;;;16.90;76.80;;;;;;5029672;28;20468;-64
2021/07/20 04:11:38;;;;;;;12.10;9.40;;;16.90;76.90;;;;;;5025312;28;20033;-64
2021/07/20 04:14:05;;;;;;;12.07;9.32;;;16.90;76.80;;;;;;5025888;28;20411;-65
2021/07/20 04:16:33;;;;;;;10.98;8.75;;;16.90;77.00;;;;;;5027835;28;20067;-63
2021/07/20 04:18:59;;;;;;;12.20;7.97;;;16.90;77.10;;;;;;5026476;28;20037;-64
2021/07/20 04:21:25;;;;;;;9.98;8.43;;;16.80;77.00;;;;;;5030887;28;20025;-64
2021/07/20 04:23:51;;;;;;;11.35;8.15;;;16.90;77.00;;;;;;5025208;28;20060;-64
2021/07/20 04:26:19;;;;;;;10.27;7.60;;;16.90;76.90;;;;;;5035122;28;20034;-64
2021/07/20 04:28:45;;;;;;;11.52;7.85;;;16.90;76.80;;;;;;5037264;28;20042;-64
2021/07/20 04:31:12;;;;;;;11.77;8.02;;;17.00;76.80;;;;;;5036010;28;20038;-64
2021/07/20 04:33:38;;;;;;;10.73;7.45;;;17.00;76.80;;;;;;5032631;28;20051;-64
2021/07/20 04:36:04;;;;;;;9.98;7.72;;;17.00;77.50;;;;;;5017617;28;20038;-64
2021/07/20 04:38:33;;;;;;;11.80;8.57;;;17.00;76.60;;;;;;5035464;28;20041;-64
2021/07/20 04:41:00;;;;;;;12.50;7.82;;;17.10;76.70;;;;;;5027404;28;20037;-63
2021/07/20 04:43:26;;;;;;;12.25;8.07;;;17.10;76.50;;;;;;5020961;28;20042;-64
2021/07/20 04:45:54;;;;;;;11.82;8.45;;;17.10;76.50;;;;;;5034824;28;20548;-64
2021/07/20 04:48:20;;;;;;;14.73;8.43;;;17.10;76.80;;;;;;5036006;28;20500;-64
2021/07/20 04:50:46;;;;;;;14.10;8.32;;;17.10;77.50;;;;;;5037883;28;20033;-64
2021/07/20 04:53:14;;;;;;;14.48;8.35;;;17.20;76.80;;;;;;5036618;28;20041;-64
2021/07/20 04:55:40;;;;;;;15.55;9.18;;;17.20;76.70;;;;;;5034484;28;20040;-64
2021/07/20 04:58:06;;;;;;;10.90;8.13;;;17.30;76.90;;;;;;5038455;28;20032;-64
2021/07/20 05:00:36;;;;;;;11.70;8.95;;;17.30;76.60;;;;;;5037686;28;20037;-64
2021/07/20 05:03:03;;;;;;;10.77;8.40;;;17.30;76.80;;;;;;5037040;28;20522;-64
2021/07/20 05:05:31;;;;;;;14.02;8.90;;;17.30;77.00;;;;;;5018142;28;20096;-64
2021/07/20 05:08:00;;;;;;;11.82;8.52;;;17.40;77.10;;;;;;5038779;28;20033;-64
2021/07/20 05:10:26;;;;;;;16.13;9.00;;;17.40;77.00;;;;;;5035895;28;20029;-64
2021/07/20 05:12:52;;;;;;;11.70;8.40;;;17.40;77.90;;;;;;5036960;28;20029;-64
2021/07/20 05:15:20;;;;;;;14.23;9.02;;;17.50;77.20;;;;;;5038432;28;20064;-64
2021/07/20 05:17:47;;;;;;;13.30;9.57;;;17.50;77.20;;;;;;5037817;28;20026;-64
2021/07/20 05:20:14;;;;;;;14.85;9.10;;;17.50;77.20;;;;;;5038922;28;20033;-64
2021/07/20 05:22:41;;;;;;;15.00;10.10;;;17.50;77.20;;;;;;5037422;28;20037;-64
2021/07/20 05:25:09;;;;;;;14.90;10.35;;;17.60;77.10;;;;;;5037749;28;20082;-64
2021/07/20 05:27:37;;;;;;;13.85;10.93;;;17.60;77.20;;;;;;5037310;28;20500;-64
2021/07/20 05:30:06;;;;;;;14.15;10.88;;;17.60;77.20;;;;;;5038049;28;20033;-64
2021/07/20 05:32:36;;;;;;;14.90;10.50;;;17.70;77.50;;;;;;5039069;28;20033;-64
2021/07/20 05:35:04;;;;;;;14.65;10.98;;;17.70;77.60;;;;;;5037532;28;20546;-64
2021/07/20 05:37:34;;;;;;;14.82;10.05;;;17.70;77.50;;;;;;5037011;28;20180;-64
2021/07/20 05:40:01;;;;;;;17.67;10.68;;;17.80;77.50;;;;;;5035799;28;20487;-63
2021/07/20 05:42:28;;;;;;;13.82;10.45;;;17.80;77.40;;;;;;5035847;28;20575;-64
2021/07/20 05:44:54;;;;;;;14.27;10.20;;;17.80;77.70;;;;;;5034856;28;20037;-64
2021/07/20 05:47:21;;;;;;;14.88;10.82;;;17.90;78.20;;;;;;5036311;28;20025;-64
2021/07/20 05:49:47;;;;;;;16.08;10.43;;;18.00;77.40;;;;;;5035846;28;20124;-64
2021/07/20 05:52:15;;;;;;;14.15;10.70;;;18.00;77.50;;;;;;5034557;28;20108;-64
2021/07/20 05:54:46;;;;;;;17.05;10.65;;;18.00;77.50;;;;;;5034945;28;20037;-64
2021/07/20 05:57:12;;;;;;;16.25;10.05;;;18.10;77.30;;;;;;5032087;28;20420;-64
2021/07/20 05:59:41;;;;;;;14.73;10.20;;;18.20;77.20;;;;;;5035613;28;20547;-64
2021/07/20 06:02:11;;;;;;;15.43;10.18;;;18.20;77.00;;;;;;5034634;28;20044;-64
2021/07/20 06:04:38;;;;;;;14.27;10.95;;;18.30;77.00;;;;;;5035830;28;20036;-64
2021/07/20 06:07:05;;;;;;;14.57;10.05;;;18.40;76.80;;;;;;5031697;28;20465;-64
2021/07/20 06:09:32;;;;;;;15.52;10.77;;;18.50;76.60;;;;;;5031690;28;20060;-64
2021/07/20 06:11:59;;;;;;;14.85;10.70;;;18.60;76.50;;;;;;5033480;28;20037;-64
2021/07/20 06:14:25;;;;;;;13.77;10.27;;;18.70;76.10;;;;;;5035153;28;20038;-64
2021/07/20 06:16:51;;;;;;;15.43;10.93;;;18.70;75.90;;;;;;5036156;28;20033;-64
2021/07/20 06:19:17;;;;;;;13.63;10.40;;;18.80;76.00;;;;;;5036467;28;20030;-64
2021/07/20 06:21:44;;;;;;;17.77;11.18;;;18.90;75.80;;;;;;5036714;28;20025;-64
2021/07/20 06:24:11;;;;;;;13.50;10.70;;;18.90;75.40;;;;;;5032671;28;20056;-64
2021/07/20 06:26:38;;;;;;;18.27;10.90;;;19.00;75.10;;;;;;5037930;28;20046;-64
2021/07/20 06:29:09;;;;;;;17.45;11.30;;;19.00;74.40;;;;;;5033478;28;20543;-64
2021/07/20 06:31:39;;;;;;;13.48;10.35;;;19.10;73.70;;;;;;5033794;28;20520;-64
2021/07/20 06:34:06;;;;;;;17.45;11.05;;;19.10;73.90;;;;;;5036266;28;20111;-64
2021/07/20 06:36:37;;;;;;;14.57;10.93;;;19.10;73.80;;;;;;5036377;28;20040;-64
2021/07/20 06:39:06;;;;;;;14.50;11.02;;;19.10;73.70;;;;;;5038082;28;20044;-64
2021/07/20 06:41:36;;;;;;;21.15;11.15;;;19.10;74.00;;;;;;5037643;28;20039;-64
2021/07/20 06:44:03;;;;;;;14.82;10.95;;;19.20;73.80;;;;;;5034467;28;20390;-63
2021/07/20 06:46:29;;;;;;;15.60;11.23;;;19.20;73.80;;;;;;5034055;28;20044;-64
2021/07/20 06:48:56;;;;;;;13.57;10.77;;;19.20;73.90;;;;;;5039237;28;20033;-64
2021/07/20 06:51:23;;;;;;;15.25;10.77;;;19.30;74.00;;;;;;5032293;28;20033;-64
2021/07/20 06:53:51;;;;;;;16.48;10.07;;;19.30;73.90;;;;;;5035138;28;20026;-64
2021/07/20 06:56:46;;;;;;;13.05;10.70;;;19.40;74.70;;;;;;5034341;28;20907;-64
2021/07/20 06:59:13;;;;;;;;;;;19.40;73.70;;;;;;5013733;28;20596;-64
2021/07/20 07:01:40;;;;;;;13.23;9.50;;;19.50;73.40;;;;;;5011008;28;19928;-64
2021/07/20 07:04:17;;;;;;;14.32;9.68;;;19.50;73.20;;;;;;5013732;28;20037;-64
2021/07/20 07:06:46;;;;;;;11.60;9.20;;;19.50;73.60;;;;;;5012560;28;20052;-64
2021/07/20 07:09:12;;;;;;;14.10;9.20;;;19.60;73.40;;;;;;5015433;28;20045;-64
2021/07/20 07:11:43;;;;;;;18.35;9.52;;;19.70;72.30;;;;;;5016637;28;20498;-65
2021/07/20 07:14:13;;;;;;;15.95;10.02;;;19.80;72.00;;;;;;5016433;28;20041;-64
2021/07/20 07:16:41;;;;;;;11.73;9.30;;;19.90;72.30;;;;;;5014672;28;20540;-64
2021/07/20 07:19:09;;;;;;;13.40;9.82;;;19.90;72.00;;;;;;5011447;28;20416;-64
2021/07/20 07:21:36;;;;;;;11.52;9.38;;;20.00;72.00;;;;;;5015118;28;20038;-64
2021/07/20 07:24:02;;;;;;;13.15;9.55;;;20.10;71.40;;;;;;5014478;28;20152;-64
2021/07/20 07:26:29;;;;;;;12.80;8.90;;;20.20;71.40;;;;;;5014538;28;20044;-65
2021/07/20 07:28:55;;;;;;;12.02;8.70;;;20.30;71.10;;;;;;5016088;28;20048;-65
2021/07/20 07:31:22;;;;;;;13.77;8.75;;;20.30;70.60;;;;;;5015735;28;20045;-64
2021/07/20 07:33:49;;;;;;;11.45;8.93;;;20.40;70.60;;;;;;5016048;28;20644;-64
2021/07/20 07:36:16;;;;;;;10.82;8.90;;;20.50;70.20;;;;;;5015836;28;20037;-64
2021/07/20 07:38:45;;;;;;;12.50;9.27;;;20.60;70.00;;;;;;5016777;28;22724;-65
2021/07/20 07:41:11;;;;;;;13.98;9.60;;;20.70;69.90;;;;;;5014896;28;20048;-65
2021/07/20 07:43:38;;;;;;;12.75;9.32;;;20.80;69.70;;;;;;5015463;28;20608;-64
2021/07/20 07:46:05;;;;;;;12.50;8.80;;;20.90;69.30;;;;;;5007824;28;20064;-64
2021/07/20 07:48:36;;;;;;;11.95;8.98;;;21.00;69.40;;;;;;5028448;28;20038;-65
2021/07/20 07:51:04;;;;;;;12.77;9.55;;;21.00;69.10;;;;;;5007753;28;20087;-64
2021/07/20 07:53:30;;;;;;;12.98;10.15;;;21.10;69.10;;;;;;5009776;28;20030;-65
2021/07/20 07:55:56;;;;;;;13.25;9.38;;;21.10;68.30;;;;;;5008976;28;20816;-64
2021/07/20 07:58:28;;;;;;;12.82;9.30;;;21.20;68.40;;;;;;5006593;28;20033;-64
2021/07/20 08:00:56;;;;;;;13.25;9.75;;;21.30;68.30;;;;;;5032542;28;20029;-65
2021/07/20 08:03:25;;;;;;;14.65;10.00;;;21.30;68.60;;;;;;5035262;28;20408;-64
2021/07/20 08:05:50;;;;;;;11.43;9.23;;;21.40;69.30;;;;;;5032372;28;20037;-64
2021/07/20 08:08:18;;;;;;;13.32;10.00;;;21.40;68.10;;;;;;5032016;28;20049;-64
2021/07/20 08:10:44;;;;;;;12.32;9.70;;;21.50;67.80;;;;;;5028765;28;20627;-64
2021/07/20 08:13:12;;;;;;;12.68;9.13;;;21.50;67.70;;;;;;5029976;28;20039;-64
2021/07/20 08:15:38;;;;;;;12.73;9.32;;;21.60;67.60;;;;;;5033864;28;20029;-64
2021/07/20 08:18:05;;;;;;;15.35;9.35;;;21.70;67.60;;;;;;5033493;28;20056;-64
2021/07/20 08:20:32;;;;;;;12.50;9.93;;;21.80;67.50;;;;;;5036945;28;20025;-64
2021/07/20 08:22:58;;;;;;;12.45;8.80;;;21.80;66.80;;;;;;5032152;28;20036;-64
2021/07/20 08:25:31;;;;;;;13.32;9.05;;;21.90;66.80;;;;;;5035464;28;20040;-64
2021/07/20 08:28:13;;;;;;;11.50;8.77;;;21.90;66.80;;;;;;5031632;28;20060;-64
2021/07/20 08:30:45;;;;;;;11.80;8.90;;;22.00;66.20;;;;;;5031281;28;20055;-64
2021/07/20 08:33:19;;;;;;;10.43;8.07;;;22.10;66.20;;;;;;5034151;28;20042;-64
2021/07/20 08:35:45;;;;;;;10.18;8.07;;;22.20;66.00;;;;;;5033482;28;20244;-65
2021/07/20 08:38:14;;;;;;;10.25;8.35;;;22.20;65.60;;;;;;5021358;28;20044;-65
2021/07/20 08:40:48;;;;;;;10.70;8.40;;;22.40;65.60;;;;;;5014558;28;20038;-64
2021/07/20 08:43:45;;;;;;;10.90;9.00;;;22.40;64.30;;;;;;5010403;28;20409;-65
2021/07/20 08:46:13;;;;;;;11.38;8.55;;;22.50;63.30;;;;;;5015317;28;20117;-64
2021/07/20 08:48:41;;;;;;;9.77;8.15;;;22.60;64.00;;;;;;5005076;28;20042;-64
2021/07/20 08:51:13;;;;;;;11.35;9.00;;;22.70;64.10;;;;;;5011490;28;20033;-65
2021/07/20 08:54:00;;;;;;;14.63;9.30;;;22.80;63.60;;;;;;5040806;28;20049;-65
2021/07/20 08:56:28;;;;;;;10.93;8.57;;;22.90;62.00;;;;;;5042194;28;20034;-64
2021/07/20 08:59:05;;;;;;;15.77;10.02;;;22.90;62.40;;;;;;5010818;28;20531;-65
2021/07/20 09:01:53;;;;;;;11.43;8.63;;;23.00;60.30;;;;;;5015238;28;20061;-64
2021/07/20 09:04:35;;;;;;;13.15;9.55;;;23.00;61.00;;;;;;5014232;28;20034;-65
2021/07/20 09:07:07;;;;;;;12.00;8.80;;;23.10;60.20;;;;;;5033406;28;20404;-64
2021/07/20 09:09:39;;;;;;;12.43;8.85;;;23.10;60.60;;;;;;5033677;28;20030;-65
2021/07/20 09:12:10;;;;;;;13.82;10.02;;;23.20;61.60;;;;;;5034376;28;20513;-65
2021/07/20 09:14:36;;;;;;;12.13;9.05;;;23.20;60.10;;;;;;5037215;28;20038;-65
2021/07/20 09:17:21;;;;;;;12.82;9.88;;;23.30;60.50;;;;;;5035570;28;20040;-64
2021/07/20 09:20:04;;;;;;;11.65;9.13;;;23.30;59.30;;;;;;5036947;28;20029;-64
2021/07/20 09:22:53;;;;;;;13.40;10.00;;;23.40;59.70;;;;;;5037921;28;20044;-65
2021/07/20 09:25:23;;;;;;;14.35;9.65;;;23.50;59.90;;;;;;5037642;28;20022;-64
2021/07/20 09:28:02;;;;;;;11.63;9.23;;;23.60;60.30;;;;;;5039594;28;20026;-65
2021/07/20 09:30:32;;;;;;;11.13;9.07;;;23.70;59.80;;;;;;5039732;28;20060;-65
2021/07/20 09:33:20;;;;;;;13.48;9.93;;;23.80;59.70;;;;;;5039066;28;20120;-65
2021/07/20 09:36:08;;;;;;;19.17;10.00;;;23.80;58.00;;;;;;5037136;28;20030;-65
2021/07/20 09:38:55;;;;;;;12.20;9.68;;;24.00;58.90;;;;;;5035041;28;20053;-65
2021/07/20 09:41:52;;;;;;;10.48;9.25;;;24.10;58.60;;;;;;5033320;28;20575;-65
2021/07/20 09:44:44;;;;;;;14.45;9.00;;;24.20;58.50;;;;;;5038094;28;20094;-65
2021/07/20 09:47:27;;;;;;;10.77;9.05;;;24.30;57.70;;;;;;5049986;28;20044;-65
2021/07/20 09:50:09;;;;;;;10.35;8.93;;;24.50;58.10;;;;;;5036499;28;20032;-65
2021/07/20 09:52:37;;;;;;;11.75;9.85;;;24.60;57.70;;;;;;5031244;28;20025;-65
2021/07/20 09:55:18;;;;;;;12.25;9.50;;;24.80;57.40;;;;;;5036164;28;20029;-65
2021/07/20 09:58:04;;;;;;;10.68;9.15;;;24.90;57.80;;;;;;5035620;28;20033;-65
2021/07/20 10:00:58;;;;;;;11.50;9.43;;;25.00;57.20;;;;;;5036724;28;20097;-65
2021/07/20 10:03:39;;;;;;;12.30;9.60;;;25.00;56.80;;;;;;5036118;28;20095;-65
2021/07/20 10:06:17;;;;;;;11.95;9.85;;;25.10;56.40;;;;;;5035453;28;20042;-65
2021/07/20 10:08:48;;;;;;;12.48;9.75;;;25.20;56.00;;;;;;5031091;28;20045;-65
2021/07/20 10:11:19;;;;;;;11.20;9.38;;;25.30;56.60;;;;;;5030154;28;20171;-65
2021/07/20 10:14:16;;;;;;;11.30;9.93;;;25.30;56.10;;;;;;5030183;28;20432;-64
2021/07/20 10:17:07;;;;;;;11.23;9.20;;;25.40;54.40;;;;;;5034157;28;20047;-65
2021/07/20 10:20:01;;;;;;;9.73;8.73;;;25.40;55.50;;;;;;5031826;28;20099;-65
2021/07/20 10:22:36;;;;;;;12.32;9.63;;;25.50;55.20;;;;;;5035770;28;20034;-65
2021/07/20 10:25:06;;;;;;;13.73;9.52;;;25.60;55.30;;;;;;5037273;28;20527;-65
2021/07/20 10:27:47;;;;;;;12.98;10.25;;;25.50;55.30;;;;;;5038450;28;20034;-65
2021/07/20 10:30:15;;;;;;;10.27;9.10;;;25.60;54.50;;;;;;5038173;28;20112;-65
2021/07/20 10:33:11;;;;;;;13.25;9.00;;;25.60;55.40;;;;;;5037615;28;20052;-65
2021/07/20 10:35:42;;;;;;;11.88;9.50;;;25.60;54.50;;;;;;5036327;28;20029;-65
2021/07/20 10:38:11;;;;;;;12.98;10.18;;;25.60;54.40;;;;;;5038349;28;20061;-65
2021/07/20 10:40:41;;;;;;;11.82;9.23;;;25.60;54.60;;;;;;5037187;28;20120;-65
2021/07/20 10:43:15;;;;;;;12.07;9.00;;;25.70;54.70;;;;;;5038001;28;20167;-65
2021/07/20 10:45:43;;;;;;;13.00;9.65;;;25.80;54.00;;;;;;5029701;28;20084;-65
2021/07/20 10:48:23;;;;;;;11.52;9.07;;;25.80;53.80;;;;;;5033628;28;20037;-65
2021/07/20 10:50:56;;;;;;;12.38;9.82;;;25.80;53.50;;;;;;5033344;28;20056;-65
2021/07/20 10:53:24;;;;;;;11.77;9.55;;;25.90;52.90;;;;;;5036420;28;20080;-65
2021/07/20 10:56:07;;;;;;;11.43;9.50;;;26.00;52.90;;;;;;5035648;28;20041;-66
2021/07/20 10:58:48;;;;;;;11.50;9.55;;;26.00;52.30;;;;;;5036941;28;20025;-65
2021/07/20 11:01:30;;;;;;;12.68;10.23;;;26.00;52.30;;;;;;5037311;28;20068;-66
2021/07/20 11:04:24;;;;;;;13.27;10.30;;;26.10;52.40;;;;;;5019730;28;20048;-65
2021/07/20 11:06:51;;;;;;;13.70;10.70;;;26.10;51.00;;;;;;5032940;28;20040;-66
2021/07/20 11:09:22;;;;;;;14.18;10.98;;;26.10;51.40;;;;;;5033362;28;20030;-66
2021/07/20 11:11:57;;;;;;;13.27;10.35;;;26.10;51.50;;;;;;5018095;28;20044;-65
2021/07/20 11:14:31;;;;;;;14.40;10.70;;;26.00;51.60;;;;;;5032201;28;20040;-66
2021/07/20 11:16:59;;;;;;;14.77;10.63;;;26.10;52.10;;;;;;5028405;28;20129;-65
2021/07/20 11:19:26;;;;;;;13.55;10.52;;;26.00;52.60;;;;;;5034579;28;20476;-65
2021/07/20 11:21:55;;;;;;;12.30;9.98;;;26.00;52.80;;;;;;5035317;28;20033;-65
2021/07/20 11:24:21;;;;;;;14.80;11.00;;;26.00;52.90;;;;;;5037587;28;20098;-65
2021/07/20 11:26:47;;;;;;;13.18;10.98;;;26.10;52.80;;;;;;5029550;28;20029;-65
2021/07/20 11:29:13;;;;;;;11.73;10.32;;;26.10;52.70;;;;;;5030844;28;20510;-65
2021/07/20 11:31:51;;;;;;;14.65;11.85;;;26.10;52.30;;;;;;5036044;28;20539;-65
2021/07/20 11:34:35;;;;;;;13.07;10.88;;;26.20;52.00;;;;;;5034609;28;20040;-65
2021/07/20 11:37:27;;;;;;;13.93;11.27;;;26.30;52.60;;;;;;5033472;28;20477;-65
2021/07/20 11:40:00;;;;;;;14.95;10.88;;;26.30;52.00;;;;;;5049878;28;20029;-65
2021/07/20 11:42:55;;;;;;;16.38;12.10;;;26.40;52.10;;;;;;5034877;28;20048;-66
2021/07/20 11:45:21;;;;;;;15.68;12.27;;;26.40;49.90;;;;;;5032133;28;20058;-65
2021/07/20 11:47:52;;;;;;;17.35;13.35;;;26.40;50.70;;;;;;5034263;28;20030;-66
2021/07/20 11:50:52;;;;;;;18.75;13.95;;;26.40;49.30;;;;;;5035134;28;20056;-66
2021/07/20 11:54:05;;;;;;;16.35;12.95;;;26.40;48.10;;;;;;5033637;28;20022;-66
2021/07/20 11:56:58;;;;;;;14.68;12.38;;;26.30;49.80;;;;;;5012919;28;20572;-66
2021/07/20 11:59:32;;;;;;;17.70;12.90;;;26.30;51.00;;;;;;5031746;28;20026;-65
2021/07/20 12:02:22;;;;;;;14.90;11.65;;;26.30;51.00;;;;;;5033010;28;20037;-65
2021/07/20 12:05:22;;;;;;;16.58;12.80;;;26.40;50.30;;;;;;5034784;28;20036;-65
2021/07/20 12:07:53;;;;;;;15.98;12.98;;;26.40;50.00;;;;;;5032552;28;20113;-65
2021/07/20 12:10:35;;;;;;;14.73;12.60;;;26.50;49.90;;;;;;5032993;28;20575;-65
2021/07/20 12:13:05;;;;;;;14.05;11.93;;;26.60;49.60;;;;;;5035991;28;20381;-65
2021/07/20 12:15:33;;;;;;;16.23;13.70;;;26.60;50.70;;;;;;5035002;28;20034;-65
2021/07/20 12:18:02;;;;;;;17.60;13.40;;;26.60;48.60;;;;;;5034161;28;20041;-65
2021/07/20 12:20:28;;;;;;;15.43;12.40;;;26.50;49.40;;;;;;5034545;28;20025;-65
2021/07/20 12:22:55;;;;;;;14.82;12.48;;;26.50;49.50;;;;;;5034097;28;20475;-66
2021/07/20 12:25:23;;;;;;;15.40;12.57;;;26.50;50.00;;;;;;5035582;28;20044;-65
2021/07/20 12:27:51;;;;;;;15.38;12.85;;;26.50;50.10;;;;;;5035257;28;20053;-65
2021/07/20 12:30:20;;;;;;;15.57;13.30;;;26.60;49.40;;;;;;5019298;28;20112;-65
2021/07/20 12:32:46;;;;;;;15.77;12.48;;;26.60;49.10;;;;;;5033114;28;20455;-66
2021/07/20 12:35:20;;;;;;;15.48;12.05;;;26.60;49.00;;;;;;5033268;28;20385;-65
2021/07/20 12:37:59;;;;;;;16.88;13.35;;;26.60;48.00;;;;;;5033625;28;20037;-65
2021/07/20 12:40:26;;;;;;;17.80;13.77;;;26.60;47.30;;;;;;5032589;28;20040;-65
2021/07/20 12:42:52;;;;;;;15.80;12.45;;;26.60;49.20;;;;;;5035481;28;20076;-65
2021/07/20 12:45:20;;;;;;;15.15;13.10;;;26.60;49.00;;;;;;5035814;28;20370;-65
2021/07/20 12:47:47;;;;;;;16.85;13.73;;;26.60;48.30;;;;;;5039039;28;20454;-65
2021/07/20 12:50:20;;;;;;;15.95;13.38;;;26.70;48.20;;;;;;5037762;28;20582;-65
2021/07/20 12:52:47;;;;;;;15.50;12.25;;;26.70;46.90;;;;;;5037805;28;20071;-65
2021/07/20 12:55:21;;;;;;;16.50;12.73;;;26.60;48.20;;;;;;5052579;28;20103;-64
2021/07/20 12:57:56;;;;;;;16.80;13.13;;;26.70;48.60;;;;;;5038010;28;20036;-65